TRA46L EHRD-EHAM
Flight info
| Callsign | TRA46L |
|---|---|
| Flight time | 0h 11m |
| Altitude | 7000 |
| Route | INKET DCT SPY/N0268F060 |
| Aircraft | B738/M-SDE2E3FGHIRWXY/LB1 |
Departure
| Time | 2026-05-06 14:53 |
|---|---|
| Airport | Rotterdam The Hague Airport (EHRD) |
Arrival
| Time | 2026-05-06 15:05 |
|---|---|
| Airport | Amsterdam Airport Schiphol (EHAM) |
| Time | Latitude | Longitude | Altitude | Speed | Heading |
|---|---|---|---|---|---|
| 2026-05-06 14:17 | 51.94994 | 4.43448 | 0 ft | 0 kts | 326° |
| 2026-05-06 14:29 | 51.94993 | 4.43448 | 0 ft | 0 kts | 324° |
| 2026-05-06 14:50 | 51.95014 | 4.43432 | 1 ft | 10 kts | 347° |
| 2026-05-06 14:50 | 51.95072 | 4.43523 | 1 ft | 13 kts | 59° |
| 2026-05-06 14:50 | 51.95131 | 4.43552 | 1 ft | 10 kts | 330° |
| 2026-05-06 14:50 | 51.95200 | 4.43480 | 0 ft | 15 kts | 327° |
| 2026-05-06 14:51 | 51.95239 | 4.43388 | 0 ft | 8 kts | 238° |
| 2026-05-06 14:51 | 51.95202 | 4.43301 | 0 ft | 13 kts | 236° |
| 2026-05-06 14:51 | 51.95145 | 4.43145 | 1 ft | 17 kts | 244° |
| 2026-05-06 14:51 | 51.95110 | 4.43025 | 0 ft | 0 kts | 250° |
| 2026-05-06 14:52 | 51.95111 | 4.42970 | 0 ft | 11 kts | 286° |
| 2026-05-06 14:52 | 51.95177 | 4.42884 | 1 ft | 12 kts | 328° |
| 2026-05-06 14:52 | 51.95229 | 4.42877 | 3 ft | 7 kts | 49° |
| 2026-05-06 14:53 | 51.95253 | 4.42934 | 1 ft | 10 kts | 57° |
| 2026-05-06 14:53 | 51.95400 | 4.43304 | -1 ft | 83 kts | 57° |
| 2026-05-06 14:53 | 51.95825 | 4.44410 | 222 ft | 135 kts | 57° |
| 2026-05-06 14:53 | 51.96358 | 4.45780 | 1057 ft | 146 kts | 45° |
| 2026-05-06 14:54 | 51.97163 | 4.46572 | 1651 ft | 133 kts | 12° |
| 2026-05-06 14:54 | 51.98092 | 4.46258 | 1973 ft | 144 kts | 335° |
| 2026-05-06 14:54 | 51.98875 | 4.45235 | 1990 ft | 144 kts | 340° |
| 2026-05-06 14:54 | 51.99836 | 4.45021 | 2018 ft | 145 kts | 2° |
| 2026-05-06 14:55 | 52.00276 | 4.45006 | 2018 ft | 150 kts | 2° |
| 2026-05-06 14:55 | 52.01337 | 4.44970 | 2022 ft | 155 kts | 2° |
| 2026-05-06 14:55 | 52.02430 | 4.44945 | 2014 ft | 155 kts | 2° |
| 2026-05-06 14:55 | 52.03492 | 4.44906 | 1986 ft | 152 kts | 3° |
| 2026-05-06 14:56 | 52.04496 | 4.45082 | 1987 ft | 143 kts | 25° |
| 2026-05-06 14:56 | 52.05419 | 4.45766 | 2008 ft | 149 kts | 24° |
| 2026-05-06 14:56 | 52.06384 | 4.46421 | 2013 ft | 151 kts | 24° |
| 2026-05-06 14:56 | 52.07347 | 4.47058 | 1994 ft | 149 kts | 23° |
| 2026-05-06 14:57 | 52.08313 | 4.47683 | 2003 ft | 150 kts | 23° |
| 2026-05-06 14:57 | 52.09354 | 4.48347 | 2022 ft | 173 kts | 22° |
| 2026-05-06 14:57 | 52.10493 | 4.49064 | 1999 ft | 177 kts | 21° |
| 2026-05-06 14:57 | 52.11624 | 4.49765 | 1993 ft | 172 kts | 22° |
| 2026-05-06 14:58 | 52.12738 | 4.50451 | 1998 ft | 171 kts | 21° |
| 2026-05-06 14:58 | 52.13854 | 4.51132 | 2002 ft | 170 kts | 22° |
| 2026-05-06 14:58 | 52.14962 | 4.51808 | 1990 ft | 171 kts | 22° |
| 2026-05-06 14:58 | 52.16076 | 4.52481 | 2006 ft | 170 kts | 21° |
| 2026-05-06 14:59 | 52.17184 | 4.53149 | 1996 ft | 169 kts | 21° |
| 2026-05-06 14:59 | 52.18281 | 4.53810 | 2009 ft | 167 kts | 21° |
| 2026-05-06 14:59 | 52.19372 | 4.54469 | 2006 ft | 168 kts | 21° |
| 2026-05-06 14:59 | 52.20475 | 4.55135 | 2006 ft | 168 kts | 22° |
| 2026-05-06 15:00 | 52.21583 | 4.55822 | 2008 ft | 168 kts | 26° |
| 2026-05-06 15:00 | 52.22394 | 4.57132 | 2017 ft | 166 kts | 61° |
| 2026-05-06 15:00 | 52.22989 | 4.58660 | 2002 ft | 154 kts | 46° |
| 2026-05-06 15:00 | 52.23653 | 4.60009 | 1922 ft | 147 kts | 55° |
| 2026-05-06 15:01 | 52.24184 | 4.61366 | 1763 ft | 139 kts | 56° |
| 2026-05-06 15:01 | 52.24678 | 4.62660 | 1576 ft | 132 kts | 56° |
| 2026-05-06 15:01 | 52.25169 | 4.63944 | 1394 ft | 134 kts | 56° |
| 2026-05-06 15:01 | 52.25654 | 4.65212 | 1235 ft | 126 kts | 55° |
| 2026-05-06 15:02 | 52.26099 | 4.66376 | 1052 ft | 116 kts | 56° |
| 2026-05-06 15:02 | 52.26509 | 4.67451 | 886 ft | 111 kts | 54° |
| 2026-05-06 15:02 | 52.26917 | 4.68512 | 760 ft | 112 kts | 54° |
| 2026-05-06 15:02 | 52.27327 | 4.69581 | 612 ft | 112 kts | 55° |
| 2026-05-06 15:03 | 52.27743 | 4.70657 | 469 ft | 111 kts | 58° |
| 2026-05-06 15:03 | 52.28159 | 4.71751 | 308 ft | 115 kts | 57° |
| 2026-05-06 15:03 | 52.28589 | 4.72868 | 176 ft | 116 kts | 58° |
| 2026-05-06 15:03 | 52.29020 | 4.74003 | 33 ft | 118 kts | 58° |
| 2026-05-06 15:04 | 52.29424 | 4.75059 | -2 ft | 100 kts | 59° |
| 2026-05-06 15:04 | 52.29483 | 4.75216 | -3 ft | 92 kts | 58° |
| 2026-05-06 15:04 | 52.29659 | 4.75672 | -3 ft | 66 kts | 57° |
| 2026-05-06 15:04 | 52.29886 | 4.76264 | -4 ft | 55 kts | 58° |
| 2026-05-06 15:05 | 52.30080 | 4.76585 | -3 ft | 30 kts | 26° |
| 2026-05-06 15:05 | 52.30199 | 4.76686 | -2 ft | 11 kts | 29° |
| 2026-05-06 15:05 | 52.30216 | 4.76701 | -2 ft | 0 kts | 28° |
| 2026-05-06 15:06 | 52.30221 | 4.76705 | -2 ft | 3 kts | 28° |
| 2026-05-06 15:06 | 52.30268 | 4.76741 | -2 ft | 9 kts | 16° |
| 2026-05-06 15:06 | 52.30328 | 4.76730 | -2 ft | 9 kts | 327° |
| 2026-05-06 15:06 | 52.30353 | 4.76626 | -2 ft | 12 kts | 288° |
| 2026-05-06 15:07 | 52.30393 | 4.76554 | -2 ft | 14 kts | 326° |
| 2026-05-06 15:07 | 52.30468 | 4.76480 | -2 ft | 6 kts | 347° |
| 2026-05-06 15:07 | 52.30494 | 4.76518 | -2 ft | 4 kts | 56° |
| 2026-05-06 15:07 | 52.30505 | 4.76548 | -2 ft | 2 kts | 58° |
| 2026-05-06 15:08 | 52.30506 | 4.76551 | -2 ft | 0 kts | 58° |